Time;durP1;ratioP1;P1;durP2;ratioP2;P2;SDS_P1;SDS_P2;PMS_P1;PMS_P2;Temp;Humidity;BMP_temperature;BMP_pressure;BME280_temperature;BME280_humidity;BME280_pressure;Samples;Min_cycle;Max_cycle;Signal;HPM_P1;HPM_P2
2021/06/27 00:01:23;;;;;;;7.78;3.92;;;;;;;;;;5115963;28;20476;-83
2021/06/27 00:03:50;;;;;;;;;;;;;;;;;;5118322;28;20106;-83
2021/06/27 00:06:16;;;;;;;24.67;3.45;;;;;;;;;;5117678;28;20003;-83
2021/06/27 00:08:42;;;;;;;6.65;3.17;;;;;;;;;;5117467;28;20020;-83
2021/06/27 00:11:09;;;;;;;9.85;2.30;;;;;;;;;;5117026;28;20034;-83
2021/06/27 00:13:38;;;;;;;10.77;3.10;;;;;;;;;;5117278;28;20019;-83
2021/06/27 00:16:05;;;;;;;10.73;4.60;;;;;;;;;;5117338;28;20023;-83
2021/06/27 00:18:31;;;;;;;11.93;3.80;;;;;;;;;;5117258;28;20023;-83
2021/06/27 00:21:00;;;;;;;9.57;4.00;;;;;;;;;;5117066;28;20020;-83
2021/06/27 00:23:29;;;;;;;6.28;2.50;;;;;;;;;;5116658;28;20026;-83
2021/06/27 00:25:56;;;;;;;11.10;4.60;;;;;;;;;;5117362;28;20023;-83
2021/06/27 00:28:22;;;;;;;14.23;2.65;;;;;;;;;;5117037;28;20513;-83
2021/06/27 00:30:49;;;;;;;10.10;3.40;;;;;;;;;;5116912;28;20051;-83
2021/06/27 00:33:15;;;;;;;10.30;4.25;;;;;;;;;;5115576;28;20027;-83
2021/06/27 00:35:41;;;;;;;8.70;3.58;;;;;;;;;;5117903;28;20030;-82
2021/06/27 00:38:08;;;;;;;6.82;2.97;;;;;;;;;;5117341;28;20103;-82
2021/06/27 00:40:35;;;;;;;8.05;3.88;;;;;;;;;;5116723;28;20023;-83
2021/06/27 00:43:01;;;;;;;10.15;2.78;;;;;;;;;;5116621;28;20471;-83
2021/06/27 00:45:29;;;;;;;10.70;3.35;;;;;;;;;;5115751;28;20389;-83
2021/06/27 00:47:58;;;;;;;12.30;4.55;;;;;;;;;;5116993;28;20149;-82
2021/06/27 00:50:31;;;;;;;12.07;4.10;;;;;;;;;;5116765;28;20116;-83
2021/06/27 00:52:57;;;;;;;9.85;6.18;;;;;;;;;;5115796;28;20471;-83
2021/06/27 00:55:23;;;;;;;12.63;5.28;;;;;;;;;;5116709;28;20032;-83
2021/06/27 00:57:50;;;;;;;10.57;3.45;;;;;;;;;;5116438;28;20024;-83
2021/06/27 01:00:22;;;;;;;6.32;3.72;;;;;;;;;;5116358;28;20020;-82
2021/06/27 01:02:49;;;;;;;10.93;4.68;;;;;;;;;;5116056;28;20048;-82
2021/06/27 01:05:18;;;;;;;10.38;3.58;;;;;;;;;;5116627;28;20058;-83
2021/06/27 01:07:44;;;;;;;12.75;4.20;;;;;;;;;;5117045;28;20424;-82
2021/06/27 01:10:10;;;;;;;11.30;3.80;;;;;;;;;;5116988;28;20112;-83
2021/06/27 01:12:36;;;;;;;10.07;3.13;;;;;;;;;;5116972;28;20026;-83
2021/06/27 01:15:08;;;;;;;11.52;3.45;;;;;;;;;;5116613;28;20098;-82
2021/06/27 01:17:34;;;;;;;6.82;3.50;;;;;;;;;;5115989;28;20031;-82
2021/06/27 01:20:00;;;;;;;11.35;4.18;;;;;;;;;;5114553;28;20490;-82
2021/06/27 01:22:26;;;;;;;7.35;4.82;;;;;;;;;;5115955;28;20020;-83
2021/06/27 01:24:52;;;;;;;9.68;2.85;;;;;;;;;;5117744;28;20486;-85
2021/06/27 01:27:19;;;;;;;15.38;4.07;;;;;;;;;;5114528;28;20032;-84
2021/06/27 01:29:45;;;;;;;16.48;4.53;;;;;;;;;;5115882;28;20031;-83
2021/06/27 01:32:12;;;;;;;9.63;4.72;;;;;;;;;;5115319;28;20027;-83
2021/06/27 01:34:38;;;;;;;12.25;4.57;;;;;;;;;;5115556;28;20042;-83
2021/06/27 01:37:05;;;;;;;10.45;3.10;;;;;;;;;;5115272;28;20032;-82
2021/06/27 01:39:32;;;;;;;10.82;4.55;;;;;;;;;;5115501;28;20051;-83
2021/06/27 01:41:58;;;;;;;13.20;4.80;;;;;;;;;;5114299;28;20023;-82
2021/06/27 01:44:24;;;;;;;13.13;4.88;;;;;;;;;;5115800;28;20387;-83
2021/06/27 01:46:50;;;;;;;9.30;4.15;;;;;;;;;;5115802;28;20054;-82
2021/06/27 01:49:16;;;;;;;6.07;3.95;;;;;;;;;;5115182;28;20078;-83
2021/06/27 01:51:42;;;;;;;9.73;3.05;;;;;;;;;;5115332;28;20019;-82
2021/06/27 01:54:07;;;;;;;7.15;3.38;;;;;;;;;;5114934;28;20020;-82
2021/06/27 01:56:34;;;;;;;9.38;3.70;;;;;;;;;;5114294;28;20110;-83
2021/06/27 01:59:03;;;;;;;10.75;3.10;;;;;;;;;;5115643;28;20081;-83
2021/06/27 02:01:34;;;;;;;15.80;3.90;;;;;;;;;;5115568;28;20530;-83
2021/06/27 02:04:00;;;;;;;11.35;4.47;;;;;;;;;;5116177;28;20028;-83
2021/06/27 02:06:28;;;;;;;12.55;3.72;;;;;;;;;;5115775;28;20020;-82
2021/06/27 02:08:55;;;;;;;12.88;4.05;;;;;;;;;;5114519;28;20049;-83
2021/06/27 02:11:23;;;;;;;11.90;4.35;;;;;;;;;;5114232;28;20027;-83
2021/06/27 02:13:50;;;;;;;11.00;4.15;;;;;;;;;;5115654;28;20018;-82
2021/06/27 02:16:16;;;;;;;11.52;4.15;;;;;;;;;;5116078;28;20043;-83
2021/06/27 02:18:44;;;;;;;5.65;2.67;;;;;;;;;;5114710;28;20088;-83
2021/06/27 02:21:15;;;;;;;7.90;3.50;;;;;;;;;;5115759;28;20019;-82
2021/06/27 02:23:42;;;;;;;11.90;3.78;;;;;;;;;;5115943;28;20099;-83
2021/06/27 02:26:08;;;;;;;9.52;4.60;;;;;;;;;;5115694;28;20020;-82
2021/06/27 02:28:34;;;;;;;8.60;4.13;;;;;;;;;;5115779;28;20023;-83
2021/06/27 02:31:01;;;;;;;8.75;3.63;;;;;;;;;;5113963;28;20035;-83
2021/06/27 02:33:28;;;;;;;11.57;4.47;;;;;;;;;;5114189;28;20062;-82
2021/06/27 02:35:54;;;;;;;9.07;3.50;;;;;;;;;;5114456;28;20076;-83
2021/06/27 02:38:20;;;;;;;11.05;3.95;;;;;;;;;;5114277;28;20030;-83
2021/06/27 02:40:46;;;;;;;10.65;2.55;;;;;;;;;;5114168;28;20027;-82
2021/06/27 02:43:13;;;;;;;12.73;3.92;;;;;;;;;;5114332;28;20024;-82
2021/06/27 02:45:39;;;;;;;10.43;2.67;;;;;;;;;;5114412;28;20026;-82
2021/06/27 02:48:09;;;;;;;10.93;4.13;;;;;;;;;;5114127;28;20459;-83
2021/06/27 02:50:36;;;;;;;10.15;2.58;;;;;;;;;;5114023;28;20535;-82
2021/06/27 02:53:03;;;;;;;9.15;4.07;;;;;;;;;;5113234;28;20028;-83
2021/06/27 02:55:29;;;;;;;8.13;2.83;;;;;;;;;;5114722;28;20016;-82
2021/06/27 02:57:55;;;;;;;10.35;3.58;;;;;;;;;;5114104;28;20019;-83
2021/06/27 03:00:22;;;;;;;10.63;4.20;;;;;;;;;;5113942;28;20372;-83
2021/06/27 03:02:47;;;;;;;11.65;3.28;;;;;;;;;;5112800;28;20020;-83
2021/06/27 03:05:14;;;;;;;7.93;3.53;;;;;;;;;;5114154;28;20030;-82
2021/06/27 03:07:40;;;;;;;9.13;2.33;;;;;;;;;;5113932;28;20065;-82
2021/06/27 03:10:11;;;;;;;10.82;4.03;;;;;;;;;;5113892;28;20027;-82
2021/06/27 03:12:38;;;;;;;10.52;3.50;;;;;;;;;;5113837;28;20028;-83
2021/06/27 03:15:06;;;;;;;10.75;5.07;;;;;;;;;;5114052;28;20582;-82
2021/06/27 03:17:31;;;;;;;8.43;3.67;;;;;;;;;;5113724;28;20031;-82
2021/06/27 03:19:57;;;;;;;14.52;3.60;;;;;;;;;;5114148;28;20024;-82
2021/06/27 03:22:23;;;;;;;8.93;2.90;;;;;;;;;;5112669;28;20489;-82
2021/06/27 03:24:49;;;;;;;10.95;3.83;;;;;;;;;;5114302;28;20028;-82
2021/06/27 03:27:14;;;;;;;10.13;3.10;;;;;;;;;;5114122;28;20052;-84
2021/06/27 03:29:40;;;;;;;10.63;3.65;;;;;;;;;;5113752;28;20031;-83
2021/06/27 03:32:06;;;;;;;12.20;3.58;;;;;;;;;;5114561;28;20023;-82
2021/06/27 03:34:32;;;;;;;14.20;4.68;;;;;;;;;;5117710;28;20051;-83
2021/06/27 03:36:59;;;;;;;10.13;2.83;;;;;;;;;;5118099;28;20055;-82
2021/06/27 03:39:25;;;;;;;9.05;3.80;;;;;;;;;;5117771;28;20475;-83
2021/06/27 03:41:54;;;;;;;8.57;3.92;;;;;;;;;;5116653;28;20088;-82
2021/06/27 03:44:24;;;;;;;9.85;3.13;;;;;;;;;;5117783;28;20027;-83
2021/06/27 03:46:50;;;;;;;8.80;2.63;;;;;;;;;;5117725;28;20065;-82
2021/06/27 03:49:16;;;;;;;10.82;2.28;;;;;;;;;;5116544;28;20036;-82
2021/06/27 03:51:43;;;;;;;11.02;3.72;;;;;;;;;;5117873;28;20024;-82
2021/06/27 03:54:09;;;;;;;12.32;4.22;;;;;;;;;;5117582;28;20024;-82
2021/06/27 03:56:35;;;;;;;12.77;4.07;;;;;;;;;;5116343;28;20439;-83
2021/06/27 03:59:01;;;;;;;9.45;3.97;;;;;;;;;;5117204;28;20051;-82
2021/06/27 04:01:26;;;;;;;8.25;3.58;;;;;;;;;;5106024;28;20024;-84
2021/06/27 04:03:52;;;;;;;10.80;4.43;;;;;;;;;;5115588;28;20028;-83
2021/06/27 04:06:18;;;;;;;13.85;4.20;;;;;;;;;;5109043;28;20028;-84
2021/06/27 04:08:43;;;;;;;11.55;3.65;;;;;;;;;;5095050;28;20106;-84
2021/06/27 04:11:09;;;;;;;11.07;3.50;;;;;;;;;;5096438;28;20041;-83
2021/06/27 04:13:36;;;;;;;15.23;3.85;;;;;;;;;;5096447;28;20101;-83
2021/06/27 04:16:03;;;;;;;8.05;5.50;;;;;;;;;;5094981;28;20517;-83
2021/06/27 04:18:29;;;;;;;11.75;4.40;;;;;;;;;;5096258;28;20486;-83
2021/06/27 04:20:56;;;;;;;7.25;3.00;;;;;;;;;;5107189;28;20133;-85
2021/06/27 04:23:23;;;;;;;11.40;4.10;;;;;;;;;;5116545;28;20030;-84
2021/06/27 04:25:48;;;;;;;11.93;4.10;;;;;;;;;;5116517;28;20019;-84
2021/06/27 04:28:14;;;;;;;9.73;3.80;;;;;;;;;;5116512;28;20035;-83
2021/06/27 04:30:41;;;;;;;8.48;4.50;;;;;;;;;;5116696;28;20475;-83
2021/06/27 04:33:07;;;;;;;9.32;3.80;;;;;;;;;;5100497;28;20027;-84
2021/06/27 04:35:35;;;;;;;13.57;4.22;;;;;;;;;;5096825;28;20020;-83
2021/06/27 04:38:02;;;;;;;12.48;4.80;;;;;;;;;;5096583;28;20047;-83
2021/06/27 04:40:28;;;;;;;11.40;4.65;;;;;;;;;;5097289;28;20024;-83
2021/06/27 04:42:54;;;;;;;11.07;5.28;;;;;;;;;;5095583;28;20520;-84
2021/06/27 04:45:20;;;;;;;9.98;4.38;;;;;;;;;;5094530;28;20032;-84
2021/06/27 04:47:46;;;;;;;12.18;4.82;;;;;;;;;;5096330;28;20020;-83
2021/06/27 04:50:12;;;;;;;10.85;4.35;;;;;;;;;;5095201;28;20040;-83
2021/06/27 04:52:38;;;;;;;11.07;4.85;;;;;;;;;;5096106;28;20024;-85
2021/06/27 04:55:05;;;;;;;15.25;5.53;;;;;;;;;;5103705;28;20031;-85
2021/06/27 04:57:32;;;;;;;11.63;5.90;;;;;;;;;;5096009;28;20067;-86
2021/06/27 04:59:57;;;;;;;14.60;6.65;;;;;;;;;;5095703;28;20024;-85
2021/06/27 05:02:23;;;;;;;12.30;6.07;;;;;;;;;;5095152;28;20051;-87
2021/06/27 05:04:49;;;;;;;14.77;7.00;;;;;;;;;;5095627;28;20020;-85
2021/06/27 05:07:14;;;;;;;13.15;6.65;;;;;;;;;;5100883;28;20008;-86
2021/06/27 05:09:40;;;;;;;14.43;7.20;;;;;;;;;;5117008;28;20028;-86
2021/06/27 05:12:07;;;;;;;15.45;7.72;;;;;;;;;;5100070;27;20024;-85
2021/06/27 05:14:34;;;;;;;12.35;7.28;;;;;;;;;;5112408;28;20023;-87
2021/06/27 05:17:00;;;;;;;18.20;8.20;;;;;;;;;;5097000;28;20118;-85
2021/06/27 05:19:26;;;;;;;17.65;8.88;;;;;;;;;;5099301;28;20054;-86
2021/06/27 05:21:52;;;;;;;16.63;7.50;;;;;;;;;;5101295;28;20020;-86
2021/06/27 05:24:20;;;;;;;17.45;8.00;;;;;;;;;;5097466;28;20072;-86
2021/06/27 05:26:46;;;;;;;13.57;6.75;;;;;;;;;;5105337;28;20020;-86
2021/06/27 05:29:12;;;;;;;15.80;8.85;;;;;;;;;;5103522;28;20031;-86
2021/06/27 05:31:38;;;;;;;12.60;7.65;;;;;;;;;;5104846;28;20030;-87
2021/06/27 05:34:04;;;;;;;13.60;7.13;;;;;;;;;;5098655;28;20036;-87
2021/06/27 05:36:37;;;;;;;16.65;8.48;;;;;;;;;;5108845;28;20027;-87
2021/06/27 05:39:07;;;;;;;14.43;7.63;;;;;;;;;;5111240;28;20031;-88
2021/06/27 05:41:34;;;;;;;13.57;8.35;;;;;;;;;;5110328;28;20023;-88
2021/06/27 05:44:01;;;;;;;17.00;9.52;;;;;;;;;;5104165;28;20089;-87
2021/06/27 05:46:27;;;;;;;13.93;8.73;;;;;;;;;;5111015;28;20031;-88
2021/06/27 05:48:52;;;;;;;14.40;8.00;;;;;;;;;;5106180;28;20043;-88
2021/06/27 05:51:18;;;;;;;15.70;8.73;;;;;;;;;;5108693;28;20059;-88
2021/06/27 05:53:44;;;;;;;12.82;8.80;;;;;;;;;;5113615;28;20032;-87
2021/06/27 05:56:10;;;;;;;15.98;9.70;;;;;;;;;;5114801;28;20433;-87
2021/06/27 05:58:37;;;;;;;15.18;8.88;;;;;;;;;;5103599;28;20061;-88
2021/06/27 06:01:06;;;;;;;15.75;9.20;;;;;;;;;;5096267;28;20081;-87
2021/06/27 06:03:35;;;;;;;14.20;7.20;;;;;;;;;;5115620;28;20476;-87
2021/06/27 06:06:02;;;;;;;14.50;8.80;;;;;;;;;;5111900;28;20390;-88
2021/06/27 06:08:28;;;;;;;11.38;8.55;;;;;;;;;;5117531;28;20034;-87
2021/06/27 06:10:54;;;;;;;18.33;8.57;;;;;;;;;;5113790;28;20035;-86
2021/06/27 06:13:20;;;;;;;18.30;8.75;;;;;;;;;;5064100;22;20104;-88
2021/06/27 06:15:45;;;;;;;14.57;9.63;;;;;;;;;;5022943;28;20034;-89
2021/06/27 06:18:11;;;;;;;16.83;8.68;;;;;;;;;;5014175;28;20030;-87
2021/06/27 06:20:37;;;;;;;13.60;7.45;;;;;;;;;;5014102;28;20029;-87
2021/06/27 06:23:03;;;;;;;16.63;9.23;;;;;;;;;;5014044;28;20018;-88
2021/06/27 06:25:28;;;;;;;15.15;8.63;;;;;;;;;;5022343;28;20032;-88
2021/06/27 06:27:54;;;;;;;12.90;7.53;;;;;;;;;;5033857;28;20448;-88
2021/06/27 06:30:20;;;;;;;14.90;7.63;;;;;;;;;;5033788;28;20063;-88
2021/06/27 06:32:46;;;;;;;12.90;7.10;;;;;;;;;;5033856;28;20033;-86
2021/06/27 06:35:12;;;;;;;13.30;6.10;;;;;;;;;;5016222;28;20021;-87
2021/06/27 06:37:38;;;;;;;12.93;6.82;;;;;;;;;;5034108;28;20024;-88
2021/06/27 06:40:04;;;;;;;12.85;6.57;;;;;;;;;;5031963;28;20029;-88
2021/06/27 06:42:30;;;;;;;12.75;8.13;;;;;;;;;;5033409;28;20112;-86
2021/06/27 06:44:56;;;;;;;12.00;6.63;;;;;;;;;;5034219;28;20111;-86
2021/06/27 06:47:21;;;;;;;16.05;7.47;;;;;;;;;;5031344;28;20032;-87
2021/06/27 06:49:47;;;;;;;16.90;8.48;;;;;;;;;;5032929;28;20043;-86
2021/06/27 06:52:13;;;;;;;11.98;8.05;;;;;;;;;;5015795;28;20034;-86
2021/06/27 06:54:39;;;;;;;14.85;6.57;;;;;;;;;;5032218;28;20029;-87
2021/06/27 06:57:05;;;;;;;17.98;7.07;;;;;;;;;;5008881;28;20013;-88
2021/06/27 06:59:30;;;;;;;15.63;6.60;;;;;;;;;;5010088;28;20036;-86
2021/06/27 07:01:56;;;;;;;14.55;8.15;;;;;;;;;;5016197;28;20101;-86
2021/06/27 07:04:22;;;;;;;18.63;7.75;;;;;;;;;;5025256;28;20050;-86
2021/06/27 07:06:47;;;;;;;16.00;7.28;;;;;;;;;;5036543;28;20025;-86
2021/06/27 07:09:13;;;;;;;14.25;7.78;;;;;;;;;;5037715;28;20410;-86
2021/06/27 07:11:39;;;;;;;13.32;8.15;;;;;;;;;;5034509;28;20052;-85
2021/06/27 07:14:05;;;;;;;11.05;6.18;;;;;;;;;;5031664;28;20040;-87
2021/06/27 07:16:32;;;;;;;11.60;6.78;;;;;;;;;;5044547;28;20025;-87
2021/06/27 07:18:58;;;;;;;16.27;7.60;;;;;;;;;;5037636;28;20116;-86
2021/06/27 07:21:27;;;;;;;16.05;6.28;;;;;;;;;;5037278;28;20055;-86
2021/06/27 07:23:53;;;;;;;13.23;5.78;;;;;;;;;;5036695;28;20064;-86
2021/06/27 07:26:19;;;;;;;10.93;6.18;;;;;;;;;;5037667;28;20076;-86
2021/06/27 07:28:45;;;;;;;10.30;4.80;;;;;;;;;;5019356;28;20420;-88
2021/06/27 07:31:11;;;;;;;11.35;5.88;;;;;;;;;;5037177;28;20155;-86
2021/06/27 07:33:37;;;;;;;13.65;7.03;;;;;;;;;;5037320;28;20026;-87
2021/06/27 07:36:03;;;;;;;14.18;6.45;;;;;;;;;;5037262;28;20103;-86
2021/06/27 07:38:29;;;;;;;16.33;6.47;;;;;;;;;;5037149;28;20496;-87
2021/06/27 07:40:55;;;;;;;13.30;5.35;;;;;;;;;;5037104;28;20065;-86
2021/06/27 07:43:20;;;;;;;16.60;8.13;;;;;;;;;;5037059;28;20030;-86
2021/06/27 07:45:46;;;;;;;17.50;8.63;;;;;;;;;;5037035;28;20480;-86
2021/06/27 07:48:12;;;;;;;10.52;5.97;;;;;;;;;;5037177;28;20127;-86
2021/06/27 07:50:39;;;;;;;11.88;5.60;;;;;;;;;;5036569;28;20373;-86
2021/06/27 07:53:05;;;;;;;9.85;5.20;;;;;;;;;;5036605;28;20026;-86
2021/06/27 07:55:31;;;;;;;10.20;7.45;;;;;;;;;;5018905;28;20036;-87
2021/06/27 07:58:00;;;;;;;11.88;6.47;;;;;;;;;;5022124;28;20029;-87
2021/06/27 08:00:30;;;;;;;10.90;5.22;;;;;;;;;;5039911;28;20036;-86
2021/06/27 08:02:59;;;;;;;7.85;4.85;;;;;;;;;;5019262;28;20049;-86
2021/06/27 08:05:26;;;;;;;10.38;6.50;;;;;;;;;;5032902;28;20032;-86
2021/06/27 08:07:53;;;;;;;12.70;6.07;;;;;;;;;;5025827;28;20083;-88
2021/06/27 08:10:20;;;;;;;12.95;5.90;;;;;;;;;;5036952;28;20028;-87
2021/06/27 08:12:46;;;;;;;14.15;6.80;;;;;;;;;;5055246;28;20052;-86
2021/06/27 08:15:19;;;;;;;10.80;6.95;;;;;;;;;;5038971;28;20163;-85
2021/06/27 08:17:46;;;;;;;12.65;6.25;;;;;;;;;;5056005;28;20029;-86
2021/06/27 08:20:13;;;;;;;12.70;5.47;;;;;;;;;;5056698;28;20032;-88
2021/06/27 08:22:39;;;;;;;13.15;6.00;;;;;;;;;;5038743;28;20017;-85
2021/06/27 08:25:05;;;;;;;10.70;6.80;;;;;;;;;;5056993;28;20043;-85
2021/06/27 08:27:31;;;;;;;11.90;6.40;;;;;;;;;;5060975;28;20028;-87
2021/06/27 08:29:58;;;;;;;16.00;5.65;;;;;;;;;;5016691;28;20026;-88
2021/06/27 08:32:24;;;;;;;9.63;4.25;;;;;;;;;;5038411;28;20029;-92
2021/06/27 08:34:59;;;;;;;11.95;5.70;;;;;;;;;;5046111;23;20022;-92
2021/06/27 08:37:29;;;;;;;13.65;5.85;;;;;;;;;;5019736;28;20057;-90
2021/06/27 08:39:57;;;;;;;12.30;7.18;;;;;;;;;;5019431;28;20112;-93
2021/06/27 08:42:23;;;;;;;12.15;5.95;;;;;;;;;;5021489;28;20366;-93
2021/06/27 08:45:01;;;;;;;14.07;6.10;;;;;;;;;;5037506;28;20087;-92
2021/06/27 08:47:29;;;;;;;12.02;6.15;;;;;;;;;;5019223;28;20083;-90
2021/06/27 08:52:22;;;;;;;12.05;4.53;;;;;;;;;;5067563;22;20053;-91
2021/06/27 08:54:52;;;;;;;10.93;6.93;;;;;;;;;;5041066;28;20412;-91
2021/06/27 08:57:19;;;;;;;10.88;5.53;;;;;;;;;;5037418;28;20032;-90
2021/06/27 08:59:47;;;;;;;14.63;5.82;;;;;;;;;;5040669;28;20544;-91
2021/06/27 09:02:14;;;;;;;8.63;4.53;;;;;;;;;;5039846;28;20025;-90
2021/06/27 09:04:42;;;;;;;15.48;6.18;;;;;;;;;;5024011;28;20043;-92
2021/06/27 09:07:32;;;;;;;8.20;4.45;;;;;;;;;;5050183;28;20052;-92
2021/06/27 09:10:23;;;;;;;10.73;4.13;;;;;;;;;;5022472;28;20093;-91
2021/06/27 09:12:59;;;;;;;11.95;6.13;;;;;;;;;;5040963;28;20098;-88
2021/06/27 09:15:41;;;;;;;;;;;;;;;;;;5058014;28;20184;-87
2021/06/27 09:20:49;;;;;;;8.93;5.55;;;;;;;;;;4756668;26;20527;-90
2021/06/27 09:23:17;;;;;;;12.35;5.60;;;;;;;;;;5021079;28;20029;-87
2021/06/27 09:25:44;;;;;;;10.15;4.97;;;;;;;;;;5007293;28;20082;-87
2021/06/27 09:28:15;;;;;;;12.10;4.55;;;;;;;;;;5017102;28;20022;-87
2021/06/27 09:30:55;;;;;;;7.68;5.07;;;;;;;;;;5033274;28;20480;-88
2021/06/27 09:33:24;;;;;;;11.95;4.68;;;;;;;;;;5036876;28;20025;-89
2021/06/27 09:35:58;;;;;;;11.65;4.85;;;;;;;;;;5017359;28;20021;-90
2021/06/27 09:38:47;;;;;;;12.02;5.78;;;;;;;;;;5034203;28;20059;-87
2021/06/27 09:41:27;;;;;;;10.95;4.85;;;;;;;;;;5017196;28;20029;-87
2021/06/27 09:47:25;;;;;;;12.23;4.97;;;;;;;;;;4985012;22;20062;-89
2021/06/27 09:49:50;;;;;;;10.27;4.80;;;;;;;;;;5032724;28;20046;-89
2021/06/27 09:52:40;;;;;;;7.82;4.90;;;;;;;;;;5326210;22;20146;-88
2021/06/27 09:57:41;;;;;;;13.02;6.63;;;;;;;;;;5178541;22;20057;-89
2021/06/27 10:09:22;;;;;;;16.45;7.65;;;;;;;;;;5038174;22;20050;-89
2021/06/27 10:12:01;;;;;;;11.00;6.70;;;;;;;;;;4997116;28;20041;-86
2021/06/27 10:14:33;;;;;;;14.48;5.30;;;;;;;;;;5014464;28;20026;-87
2021/06/27 10:17:01;;;;;;;12.07;8.05;;;;;;;;;;4996722;28;20026;-87
2021/06/27 10:19:28;;;;;;;9.73;5.80;;;;;;;;;;5014038;28;20501;-89
2021/06/27 10:22:03;;;;;;;9.90;5.47;;;;;;;;;;4981275;28;20041;-88
2021/06/27 10:24:29;;;;;;;9.48;5.07;;;;;;;;;;5014342;28;20037;-90
2021/06/27 10:26:55;;;;;;;9.18;4.57;;;;;;;;;;5014232;28;20482;-90
2021/06/27 10:29:23;;;;;;;13.10;5.13;;;;;;;;;;5014167;28;20033;-90
2021/06/27 10:31:53;;;;;;;9.52;4.60;;;;;;;;;;5014307;28;20140;-91
2021/06/27 10:34:20;;;;;;;9.65;5.40;;;;;;;;;;4998221;28;20073;-86
2021/06/27 10:36:53;;;;;;;13.00;4.85;;;;;;;;;;5014178;28;20510;-90
2021/06/27 10:39:19;;;;;;;7.93;3.88;;;;;;;;;;5014095;28;20131;-87
2021/06/27 10:41:54;;;;;;;11.75;7.38;;;;;;;;;;4995922;28;20036;-87
2021/06/27 10:44:24;;;;;;;8.93;4.63;;;;;;;;;;5014567;28;20026;-88
2021/06/27 10:46:52;;;;;;;10.75;5.38;;;;;;;;;;4997141;28;20111;-87
2021/06/27 10:49:31;;;;;;;10.30;5.00;;;;;;;;;;4996447;28;20025;-87
2021/06/27 10:52:07;;;;;;;14.13;5.50;;;;;;;;;;4996787;28;20042;-86
2021/06/27 10:54:32;;;;;;;11.30;4.63;;;;;;;;;;4996487;28;20026;-86
2021/06/27 10:57:21;;;;;;;11.20;4.82;;;;;;;;;;5013818;28;20385;-87
2021/06/27 10:59:48;;;;;;;13.90;5.28;;;;;;;;;;4996205;28;20120;-89
2021/06/27 11:02:21;;;;;;;10.52;4.38;;;;;;;;;;5013899;28;20104;-87
2021/06/27 11:04:49;;;;;;;14.38;5.20;;;;;;;;;;5011688;28;20080;-87
2021/06/27 11:07:36;;;;;;;9.02;4.13;;;;;;;;;;5011651;28;20026;-88
2021/06/27 11:10:20;;;;;;;13.68;4.57;;;;;;;;;;4994653;28;20054;-87
2021/06/27 11:12:59;;;;;;;7.82;3.63;;;;;;;;;;4996192;28;20034;-87
2021/06/27 11:15:37;;;;;;;11.82;4.28;;;;;;;;;;4995000;28;20026;-89
2021/06/27 11:18:05;;;;;;;11.25;3.80;;;;;;;;;;5012578;28;20033;-86
2021/06/27 11:20:55;;;;;;;12.90;4.47;;;;;;;;;;5013752;28;20032;-86
2021/06/27 11:23:53;;;;;;;7.60;3.75;;;;;;;;;;4995759;28;20037;-88
2021/06/27 11:26:48;;;;;;;10.85;4.30;;;;;;;;;;5013382;28;20029;-86
2021/06/27 11:29:23;;;;;;;9.95;4.00;;;;;;;;;;4995710;28;20034;-87
2021/06/27 11:31:51;;;;;;;12.00;5.50;;;;;;;;;;5013362;28;20026;-91
2021/06/27 11:34:31;;;;;;;11.45;5.20;;;;;;;;;;5013763;28;20602;-88
2021/06/27 11:37:26;;;;;;;10.70;5.50;;;;;;;;;;4996065;28;20030;-88
2021/06/27 11:40:32;;;;;;;6.78;3.17;;;;;;;;;;4996643;28;20088;-88
2021/06/27 11:42:58;;;;;;;10.45;3.53;;;;;;;;;;5013133;28;20100;-87
2021/06/27 11:45:23;;;;;;;9.02;3.53;;;;;;;;;;4995683;28;20064;-89
2021/06/27 11:47:49;;;;;;;9.70;3.28;;;;;;;;;;5013649;28;20026;-92
2021/06/27 11:50:17;;;;;;;8.40;3.13;;;;;;;;;;4995723;28;20061;-87
2021/06/27 11:52:44;;;;;;;11.55;3.65;;;;;;;;;;5016411;28;20060;-87
2021/06/27 11:55:10;;;;;;;9.40;3.83;;;;;;;;;;5016818;28;20033;-87
2021/06/27 11:57:40;;;;;;;8.13;3.92;;;;;;;;;;4999274;28;20033;-85
2021/06/27 12:00:08;;;;;;;9.30;3.42;;;;;;;;;;5017011;28;20022;-87
2021/06/27 12:02:36;;;;;;;12.73;5.53;;;;;;;;;;4998992;28;20474;-87
2021/06/27 12:05:03;;;;;;;7.78;3.85;;;;;;;;;;5016525;28;20121;-89
2021/06/27 12:07:31;;;;;;;9.75;3.47;;;;;;;;;;5016848;28;20057;-87
2021/06/27 12:10:20;;;;;;;10.70;3.35;;;;;;;;;;5020409;28;20072;-87
2021/06/27 12:12:49;;;;;;;9.45;3.33;;;;;;;;;;5019729;28;20109;-90
2021/06/27 12:15:14;;;;;;;8.48;3.67;;;;;;;;;;5017117;28;20493;-86
2021/06/27 12:17:55;;;;;;;10.07;3.50;;;;;;;;;;4999696;28;20057;-90
2021/06/27 12:20:20;;;;;;;11.32;6.20;;;;;;;;;;5016860;28;20026;-89
2021/06/27 12:22:52;;;;;;;9.85;3.78;;;;;;;;;;5016509;28;20048;-89
2021/06/27 12:25:36;;;;;;;9.23;3.72;;;;;;;;;;4996864;28;20061;-89
2021/06/27 12:28:08;;;;;;;7.10;2.90;;;;;;;;;;5006463;28;20065;-89
2021/06/27 12:30:40;;;;;;;10.00;3.53;;;;;;;;;;4998755;28;20473;-89
2021/06/27 12:33:08;;;;;;;8.52;3.75;;;;;;;;;;4998581;28;20153;-92
2021/06/27 12:35:41;;;;;;;11.80;5.28;;;;;;;;;;5016819;28;20475;-90
2021/06/27 12:38:08;;;;;;;11.98;4.40;;;;;;;;;;4999935;28;20351;-88
2021/06/27 12:40:41;;;;;;;8.20;4.32;;;;;;;;;;5019840;28;20026;-90
2021/06/27 12:43:24;;;;;;;8.68;3.22;;;;;;;;;;5017945;28;20077;-88
2021/06/27 12:46:12;;;;;;;8.77;6.07;;;;;;;;;;4998299;28;20119;-88
2021/06/27 12:48:38;;;;;;;9.25;4.00;;;;;;;;;;4998182;28;20030;-88
2021/06/27 12:51:17;;;;;;;11.88;6.72;;;;;;;;;;5016005;28;20026;-92
2021/06/27 12:53:58;;;;;;;6.30;3.50;;;;;;;;;;5017938;28;20109;-89
2021/06/27 12:56:36;;;;;;;11.57;3.33;;;;;;;;;;5016076;28;20026;-88
2021/06/27 12:59:02;;;;;;;11.93;5.47;;;;;;;;;;5015588;28;20018;-87
2021/06/27 13:01:28;;;;;;;7.93;3.38;;;;;;;;;;5016382;28;20075;-91
2021/06/27 13:03:58;;;;;;;7.90;3.33;;;;;;;;;;4998492;28;20355;-89
2021/06/27 13:06:24;;;;;;;8.23;5.35;;;;;;;;;;4999528;28;20025;-93
2021/06/27 13:08:59;;;;;;;7.30;5.00;;;;;;;;;;4998971;28;20053;-91
2021/06/27 13:11:25;;;;;;;10.55;3.13;;;;;;;;;;5015513;28;20111;-91
2021/06/27 13:13:50;;;;;;;8.50;3.78;;;;;;;;;;4998192;28;20064;-91
2021/06/27 13:16:16;;;;;;;11.30;3.65;;;;;;;;;;5015522;28;20057;-92
2021/06/27 13:18:42;;;;;;;9.57;3.05;;;;;;;;;;4998849;28;20076;-89
2021/06/27 13:21:20;;;;;;;10.93;5.40;;;;;;;;;;5015489;28;20432;-92
2021/06/27 13:23:46;;;;;;;10.85;5.15;;;;;;;;;;5016271;28;20501;-92
2021/06/27 13:26:17;;;;;;;12.70;4.57;;;;;;;;;;5015852;28;20022;-91
2021/06/27 13:28:48;;;;;;;18.80;6.38;;;;;;;;;;4997843;28;20049;-89
2021/06/27 13:31:22;;;;;;;142.63;125.40;;;;;;;;;;5015316;28;20032;-90
2021/06/27 13:33:50;;;;;;;21.38;8.07;;;;;;;;;;5014937;28;20029;-95
2021/06/27 13:36:27;;;;;;;10.10;6.25;;;;;;;;;;4998187;28;20478;-95
2021/06/27 13:38:55;;;;;;;37.05;8.30;;;;;;;;;;5016085;28;20053;-90
2021/06/27 13:41:23;;;;;;;11.90;8.27;;;;;;;;;;4997616;28;20468;-89
2021/06/27 13:43:50;;;;;;;15.15;6.43;;;;;;;;;;5015228;28;20068;-90
2021/06/27 13:46:18;;;;;;;13.73;6.28;;;;;;;;;;4999098;28;20033;-88
2021/06/27 13:48:44;;;;;;;12.65;5.55;;;;;;;;;;4997344;28;20453;-91
2021/06/27 13:51:10;;;;;;;11.00;4.63;;;;;;;;;;4996435;28;20168;-90
2021/06/27 13:53:36;;;;;;;10.50;5.60;;;;;;;;;;5013249;28;20040;-89
2021/06/27 13:56:16;;;;;;;11.00;5.30;;;;;;;;;;5011906;28;20021;-92
2021/06/27 13:58:52;;;;;;;13.43;7.90;;;;;;;;;;5014013;28;20060;-90
2021/06/27 14:01:19;;;;;;;;;;;;;;;;;;5013582;28;20516;-92
2021/06/27 14:03:46;;;;;;;11.82;8.95;;;;;;;;;;4995951;28;19918;-92
2021/06/27 14:06:14;;;;;;;11.18;5.35;;;;;;;;;;5006011;28;20088;-95
2021/06/27 14:08:40;;;;;;;11.00;5.93;;;;;;;;;;5003628;28;20042;-92
2021/06/27 14:11:06;;;;;;;12.57;5.30;;;;;;;;;;4997391;28;20099;-93
2021/06/27 14:13:33;;;;;;;11.25;7.68;;;;;;;;;;4998241;28;20071;-93
2021/06/27 14:16:00;;;;;;;10.52;4.57;;;;;;;;;;4995831;28;20042;-92
2021/06/27 14:18:29;;;;;;;12.43;5.47;;;;;;;;;;5014009;28;20018;-91
2021/06/27 14:47:12;;;;;;;12.57;8.05;;;;;;;;;;5083085;27;20403;-94
2021/06/27 14:49:50;;;;;;;10.60;6.28;;;;;;;;;;5057984;28;20101;-93
2021/06/27 14:52:17;;;;;;;10.27;4.82;;;;;;;;;;5055855;28;20033;-93
2021/06/27 14:54:44;;;;;;;10.73;4.47;;;;;;;;;;5061412;28;20029;-92
2021/06/27 14:57:15;;;;;;;12.60;7.13;;;;;;;;;;5062059;28;20454;-93
2021/06/27 14:59:40;;;;;;;12.75;5.20;;;;;;;;;;5076847;28;20021;-92
2021/06/27 15:02:06;;;;;;;9.60;5.05;;;;;;;;;;5060913;28;20102;-94
2021/06/27 15:04:32;;;;;;;22.70;10.18;;;;;;;;;;5063800;28;20083;-91
2021/06/27 15:06:58;;;;;;;11.73;5.32;;;;;;;;;;5070276;28;20483;-93
2021/06/27 15:09:39;;;;;;;11.32;5.40;;;;;;;;;;5073592;28;20028;-95
2021/06/27 15:12:15;;;;;;;10.88;5.25;;;;;;;;;;5077421;28;20066;-94
2021/06/27 15:14:41;;;;;;;12.65;5.20;;;;;;;;;;5067931;28;20033;-91
2021/06/27 15:17:07;;;;;;;14.30;7.38;;;;;;;;;;5058287;28;20025;-88
2021/06/27 15:19:34;;;;;;;13.85;6.93;;;;;;;;;;5056131;28;20361;-88
2021/06/27 15:22:01;;;;;;;17.30;9.38;;;;;;;;;;5054745;28;20025;-91
2021/06/27 15:24:26;;;;;;;10.80;5.88;;;;;;;;;;5060127;28;20025;-94
2021/06/27 15:26:53;;;;;;;9.23;7.07;;;;;;;;;;5068726;28;20051;-91
2021/06/27 15:29:18;;;;;;;10.27;7.40;;;;;;;;;;5061997;28;20025;-93